Airfield :
LOGIN :

Register | Disclaimer

   EN    FR    IT 

 










Legend :    VFR   Marginal VFR   IFR   Intensive IFR   Very Intensive IFR
Visi :
Ceiling :
>= 8 km
>= 3000ft
5 to 8 km
1000 to 3000 ft
1500m to 5 km
500 to 1000 ft
800 to 1500m
200 to 500 ft
< 800m
< 200 ft
Symbols :   Thunderstorms  Fog  Heavy snow  Heavy precipitations  Wind > 20 kt
SIGMETs :     Misc.  Thunderstorms  Icing  Turbulence  Mountain Waves  Volcanic Ashes







- Airport Elevation : 353 ft
- IATA code : ZAG


LDZA - Zagreb Pleso

CURRENT METAR :
  • 211430Z 30009KT 260V330 CAVOK 26/18 Q1011 BECMG 23005KT

EXPIRED METARs :
  • 211400Z 24010KT 200V270 9999 -SHRA VCTS FEW040CB 27/19 Q1011 TEMPO 25015KT TSRA FEW040CB
  • 211330Z 24006KT 210V280 9999 FEW040 29/19 Q1011 TEMPO 25015KT TSRA FEW040CB
  • 211300Z 23006KT 170V290 9999 FEW040 30/18 Q1011 TEMPO 25015KT SHRA FEW040TCU
  • 211230Z VRB04KT 9999 FEW040 30/19 Q1011 NOSIG
  • 211200Z 23004KT 160V310 9999 FEW040 30/18 Q1011 NOSIG

TAF TAF LDZA
Valid from the 21 at 12:00 until the 22 at 12:00 UTC


211125Z 2112/2212 VRB02KT CAVOK TX31/2113Z TN18/2203Z
PROB30
TEMPO 2113/2200 25015KT 4000 TSRA SCT040CB
PROB30
TEMPO 2210/2212 SHRA FEW035TCU
ATIS : +385 1 6-259-214
No reported NOTAMs for that airfield.



MET'MAP, your aeronautical weather chart ! - Copyright ORBIFLY December 2007 - Disclaimer

ORBIFLY MET'MAP TEAM :

Programming & Development : Alexandra Zaïnal
Concept & Development : Baudouin d'Aumeries
Co-Development & Prog : Marc-Olivier Méhu
Technical & hardware support : Manuel Goepfert

Contact : metmap@orbifly.com




SOURCES & CREDITS :

   NOAA